sensor_id;sensor_type;location;lat;lon;timestamp;temperature;humidity
6439;DHT22;3252;52.540;13.290;2022-11-04T00:00:36;10.20;99.90
6439;DHT22;3252;52.540;13.290;2022-11-04T00:02:38;10.20;99.90
6439;DHT22;3252;52.540;13.290;2022-11-04T00:04:40;10.20;99.90
6439;DHT22;3252;52.540;13.290;2022-11-04T00:06:42;10.20;99.90
6439;DHT22;3252;52.540;13.290;2022-11-04T00:08:48;10.20;99.90
6439;DHT22;3252;52.540;13.290;2022-11-04T00:10:53;10.20;99.90
6439;DHT22;3252;52.540;13.290;2022-11-04T00:13:12;10.10;99.90
6439;DHT22;3252;52.540;13.290;2022-11-04T00:15:14;10.10;99.90
6439;DHT22;3252;52.540;13.290;2022-11-04T00:17:34;10.10;99.90
6439;DHT22;3252;52.540;13.290;2022-11-04T00:19:36;10.20;99.90
6439;DHT22;3252;52.540;13.290;2022-11-04T00:21:52;10.10;99.90
6439;DHT22;3252;52.540;13.290;2022-11-04T00:24:14;10.20;99.90
6439;DHT22;3252;52.540;13.290;2022-11-04T00:26:34;10.20;99.90
6439;DHT22;3252;52.540;13.290;2022-11-04T00:28:53;10.20;99.90
6439;DHT22;3252;52.540;13.290;2022-11-04T00:30:57;10.20;99.90
6439;DHT22;3252;52.540;13.290;2022-11-04T00:33:19;10.20;99.90
6439;DHT22;3252;52.540;13.290;2022-11-04T00:35:26;10.20;99.90
6439;DHT22;3252;52.540;13.290;2022-11-04T00:37:28;10.20;99.90
6439;DHT22;3252;52.540;13.290;2022-11-04T00:39:31;10.20;99.90
6439;DHT22;3252;52.540;13.290;2022-11-04T00:41:33;10.20;99.90
6439;DHT22;3252;52.540;13.290;2022-11-04T00:43:35;10.10;99.90
6439;DHT22;3252;52.540;13.290;2022-11-04T00:45:39;10.20;99.90
6439;DHT22;3252;52.540;13.290;2022-11-04T00:47:41;10.10;99.90
6439;DHT22;3252;52.540;13.290;2022-11-04T00:49:43;10.10;99.90
6439;DHT22;3252;52.540;13.290;2022-11-04T00:51:45;10.10;99.90
6439;DHT22;3252;52.540;13.290;2022-11-04T00:53:47;10.10;99.90
6439;DHT22;3252;52.540;13.290;2022-11-04T00:55:51;10.10;99.90
6439;DHT22;3252;52.540;13.290;2022-11-04T00:57:53;10.10;99.90
6439;DHT22;3252;52.540;13.290;2022-11-04T00:59:55;10.00;99.90
6439;DHT22;3252;52.540;13.290;2022-11-04T01:01:57;10.00;99.90
6439;DHT22;3252;52.540;13.290;2022-11-04T01:03:59;10.00;99.90
6439;DHT22;3252;52.540;13.290;2022-11-04T01:06:01;10.00;99.90
6439;DHT22;3252;52.540;13.290;2022-11-04T01:08:03;10.00;99.90
6439;DHT22;3252;52.540;13.290;2022-11-04T01:10:06;10.00;99.90
6439;DHT22;3252;52.540;13.290;2022-11-04T01:12:09;10.00;99.90
6439;DHT22;3252;52.540;13.290;2022-11-04T01:14:12;9.90;99.90
6439;DHT22;3252;52.540;13.290;2022-11-04T01:16:14;9.90;99.90
6439;DHT22;3252;52.540;13.290;2022-11-04T01:18:16;10.00;99.90
6439;DHT22;3252;52.540;13.290;2022-11-04T01:20:18;9.90;99.90
6439;DHT22;3252;52.540;13.290;2022-11-04T01:22:20;9.80;99.90
6439;DHT22;3252;52.540;13.290;2022-11-04T01:24:22;9.90;99.90
6439;DHT22;3252;52.540;13.290;2022-11-04T01:26:24;9.80;99.90
6439;DHT22;3252;52.540;13.290;2022-11-04T01:28:28;9.80;99.90
6439;DHT22;3252;52.540;13.290;2022-11-04T01:30:30;9.80;99.90
6439;DHT22;3252;52.540;13.290;2022-11-04T01:32:32;9.80;99.90
6439;DHT22;3252;52.540;13.290;2022-11-04T01:34:34;9.80;99.90
6439;DHT22;3252;52.540;13.290;2022-11-04T01:36:36;9.80;99.90
6439;DHT22;3252;52.540;13.290;2022-11-04T01:38:39;9.80;99.90
6439;DHT22;3252;52.540;13.290;2022-11-04T01:40:42;9.80;99.90
6439;DHT22;3252;52.540;13.290;2022-11-04T01:42:44;9.80;99.90
6439;DHT22;3252;52.540;13.290;2022-11-04T01:44:52;9.80;99.90
6439;DHT22;3252;52.540;13.290;2022-11-04T01:46:55;9.70;99.90
6439;DHT22;3252;52.540;13.290;2022-11-04T01:49:00;9.70;99.90
6439;DHT22;3252;52.540;13.290;2022-11-04T01:51:05;9.70;99.90
6439;DHT22;3252;52.540;13.290;2022-11-04T01:53:12;9.70;99.90
6439;DHT22;3252;52.540;13.290;2022-11-04T01:55:19;9.70;99.90
6439;DHT22;3252;52.540;13.290;2022-11-04T01:57:25;9.70;99.90
6439;DHT22;3252;52.540;13.290;2022-11-04T01:59:35;9.70;99.90
6439;DHT22;3252;52.540;13.290;2022-11-04T02:01:39;9.70;99.90
6439;DHT22;3252;52.540;13.290;2022-11-04T02:03:46;9.70;99.90
6439;DHT22;3252;52.540;13.290;2022-11-04T02:05:50;9.70;99.90
6439;DHT22;3252;52.540;13.290;2022-11-04T02:07:54;9.70;99.90
6439;DHT22;3252;52.540;13.290;2022-11-04T02:09:57;9.70;99.90
6439;DHT22;3252;52.540;13.290;2022-11-04T02:12:00;9.80;99.90
6439;DHT22;3252;52.540;13.290;2022-11-04T02:14:19;9.80;99.90
6439;DHT22;3252;52.540;13.290;2022-11-04T02:16:28;9.80;99.90
6439;DHT22;3252;52.540;13.290;2022-11-04T02:18:48;9.90;99.90
6439;DHT22;3252;52.540;13.290;2022-11-04T02:23:51;9.90;99.90
6439;DHT22;3252;52.540;13.290;2022-11-04T02:29:16;9.90;99.90
6439;DHT22;3252;52.540;13.290;2022-11-04T02:31:25;9.90;99.90
6439;DHT22;3252;52.540;13.290;2022-11-04T02:33:34;9.90;99.90
6439;DHT22;3252;52.540;13.290;2022-11-04T02:35:42;9.90;99.90
6439;DHT22;3252;52.540;13.290;2022-11-04T02:37:53;9.90;99.90
6439;DHT22;3252;52.540;13.290;2022-11-04T02:40:06;9.90;99.90
6439;DHT22;3252;52.540;13.290;2022-11-04T02:42:13;9.90;99.90
6439;DHT22;3252;52.540;13.290;2022-11-04T02:44:22;9.90;99.90
6439;DHT22;3252;52.540;13.290;2022-11-04T02:46:31;9.90;99.90
6439;DHT22;3252;52.540;13.290;2022-11-04T02:48:41;9.90;99.90
6439;DHT22;3252;52.540;13.290;2022-11-04T02:50:50;9.80;99.90
6439;DHT22;3252;52.540;13.290;2022-11-04T02:52:57;9.80;99.90
6439;DHT22;3252;52.540;13.290;2022-11-04T02:55:03;9.80;99.90
6439;DHT22;3252;52.540;13.290;2022-11-04T02:57:36;9.80;99.90
6439;DHT22;3252;52.540;13.290;2022-11-04T02:59:46;9.80;99.90
6439;DHT22;3252;52.540;13.290;2022-11-04T03:01:52;9.70;99.90
6439;DHT22;3252;52.540;13.290;2022-11-04T03:03:59;9.70;99.90
6439;DHT22;3252;52.540;13.290;2022-11-04T03:06:02;9.70;99.90
6439;DHT22;3252;52.540;13.290;2022-11-04T03:08:09;9.70;99.90
6439;DHT22;3252;52.540;13.290;2022-11-04T03:10:19;9.70;99.90
6439;DHT22;3252;52.540;13.290;2022-11-04T03:12:26;9.70;99.90
6439;DHT22;3252;52.540;13.290;2022-11-04T03:14:35;9.70;99.90
6439;DHT22;3252;52.540;13.290;2022-11-04T03:16:43;9.70;99.90
6439;DHT22;3252;52.540;13.290;2022-11-04T03:18:54;9.70;99.90
6439;DHT22;3252;52.540;13.290;2022-11-04T03:21:01;9.70;99.90
6439;DHT22;3252;52.540;13.290;2022-11-04T03:23:03;9.70;99.90
6439;DHT22;3252;52.540;13.290;2022-11-04T03:25:07;9.60;99.90
6439;DHT22;3252;52.540;13.290;2022-11-04T03:27:14;9.60;99.90
6439;DHT22;3252;52.540;13.290;2022-11-04T03:29:25;9.60;99.90
6439;DHT22;3252;52.540;13.290;2022-11-04T03:31:34;9.60;99.90
6439;DHT22;3252;52.540;13.290;2022-11-04T03:33:44;9.70;99.90
6439;DHT22;3252;52.540;13.290;2022-11-04T03:35:48;9.70;99.90
6439;DHT22;3252;52.540;13.290;2022-11-04T03:37:51;9.70;99.90
6439;DHT22;3252;52.540;13.290;2022-11-04T03:39:53;9.70;99.90
6439;DHT22;3252;52.540;13.290;2022-11-04T03:41:58;9.70;99.90
6439;DHT22;3252;52.540;13.290;2022-11-04T03:44:00;9.70;99.90
6439;DHT22;3252;52.540;13.290;2022-11-04T03:46:03;9.80;99.90
6439;DHT22;3252;52.540;13.290;2022-11-04T03:48:05;9.80;99.90
6439;DHT22;3252;52.540;13.290;2022-11-04T03:50:16;9.80;99.90
6439;DHT22;3252;52.540;13.290;2022-11-04T03:52:19;9.80;99.90
6439;DHT22;3252;52.540;13.290;2022-11-04T03:54:21;9.80;99.90
6439;DHT22;3252;52.540;13.290;2022-11-04T03:56:35;9.80;99.90
6439;DHT22;3252;52.540;13.290;2022-11-04T03:58:47;9.90;99.90
6439;DHT22;3252;52.540;13.290;2022-11-04T04:01:00;9.90;99.90
6439;DHT22;3252;52.540;13.290;2022-11-04T04:03:07;9.90;99.90
6439;DHT22;3252;52.540;13.290;2022-11-04T04:05:16;9.90;99.90
6439;DHT22;3252;52.540;13.290;2022-11-04T04:07:25;9.90;99.90
6439;DHT22;3252;52.540;13.290;2022-11-04T04:09:32;9.90;99.90
6439;DHT22;3252;52.540;13.290;2022-11-04T04:11:41;9.90;99.90
6439;DHT22;3252;52.540;13.290;2022-11-04T04:13:51;9.90;99.90
6439;DHT22;3252;52.540;13.290;2022-11-04T04:15:58;9.90;99.90
6439;DHT22;3252;52.540;13.290;2022-11-04T04:18:04;10.00;99.90
6439;DHT22;3252;52.540;13.290;2022-11-04T04:20:12;10.00;99.90
6439;DHT22;3252;52.540;13.290;2022-11-04T04:22:18;10.00;99.90
6439;DHT22;3252;52.540;13.290;2022-11-04T04:24:25;10.00;99.90
6439;DHT22;3252;52.540;13.290;2022-11-04T04:26:47;10.00;99.90
6439;DHT22;3252;52.540;13.290;2022-11-04T04:29:08;10.00;99.90
6439;DHT22;3252;52.540;13.290;2022-11-04T04:31:14;10.00;99.90
6439;DHT22;3252;52.540;13.290;2022-11-04T04:33:38;10.00;99.90
6439;DHT22;3252;52.540;13.290;2022-11-04T04:35:43;10.00;99.90
6439;DHT22;3252;52.540;13.290;2022-11-04T04:37:47;10.00;99.90
6439;DHT22;3252;52.540;13.290;2022-11-04T04:39:51;10.00;99.90
6439;DHT22;3252;52.540;13.290;2022-11-04T04:42:12;10.00;99.90
6439;DHT22;3252;52.540;13.290;2022-11-04T04:44:31;10.00;99.90
6439;DHT22;3252;52.540;13.290;2022-11-04T04:46:52;10.00;99.90
6439;DHT22;3252;52.540;13.290;2022-11-04T04:49:03;10.10;99.90
6439;DHT22;3252;52.540;13.290;2022-11-04T04:51:06;10.10;99.90
6439;DHT22;3252;52.540;13.290;2022-11-04T04:53:08;10.10;99.90
6439;DHT22;3252;52.540;13.290;2022-11-04T04:55:11;10.10;99.90
6439;DHT22;3252;52.540;13.290;2022-11-04T04:57:14;10.10;99.90
6439;DHT22;3252;52.540;13.290;2022-11-04T04:59:16;10.10;99.90
6439;DHT22;3252;52.540;13.290;2022-11-04T05:01:18;10.10;99.90
6439;DHT22;3252;52.540;13.290;2022-11-04T05:03:20;10.10;99.90
6439;DHT22;3252;52.540;13.290;2022-11-04T05:05:22;10.10;99.90
6439;DHT22;3252;52.540;13.290;2022-11-04T05:07:26;10.10;99.90
6439;DHT22;3252;52.540;13.290;2022-11-04T05:09:28;10.10;99.90
6439;DHT22;3252;52.540;13.290;2022-11-04T05:11:30;10.10;99.90
6439;DHT22;3252;52.540;13.290;2022-11-04T05:13:31;10.10;99.90
6439;DHT22;3252;52.540;13.290;2022-11-04T05:15:33;10.10;99.90
6439;DHT22;3252;52.540;13.290;2022-11-04T05:17:35;10.10;99.90
6439;DHT22;3252;52.540;13.290;2022-11-04T05:19:37;10.20;99.90
6439;DHT22;3252;52.540;13.290;2022-11-04T05:21:39;10.20;99.90
6439;DHT22;3252;52.540;13.290;2022-11-04T05:23:43;10.20;99.90
6439;DHT22;3252;52.540;13.290;2022-11-04T05:25:44;10.10;99.90
6439;DHT22;3252;52.540;13.290;2022-11-04T05:27:46;10.10;99.90
6439;DHT22;3252;52.540;13.290;2022-11-04T05:29:48;10.20;99.90
6439;DHT22;3252;52.540;13.290;2022-11-04T05:31:50;10.20;99.90
6439;DHT22;3252;52.540;13.290;2022-11-04T05:33:52;10.20;99.90
6439;DHT22;3252;52.540;13.290;2022-11-04T05:35:54;10.20;99.90
6439;DHT22;3252;52.540;13.290;2022-11-04T05:37:56;10.20;99.90
6439;DHT22;3252;52.540;13.290;2022-11-04T05:39:59;10.20;99.90
6439;DHT22;3252;52.540;13.290;2022-11-04T05:42:01;10.20;99.90
6439;DHT22;3252;52.540;13.290;2022-11-04T05:44:03;10.20;99.90
6439;DHT22;3252;52.540;13.290;2022-11-04T05:46:06;10.20;99.90
6439;DHT22;3252;52.540;13.290;2022-11-04T05:48:08;10.20;99.90
6439;DHT22;3252;52.540;13.290;2022-11-04T05:50:10;10.20;99.90
6439;DHT22;3252;52.540;13.290;2022-11-04T05:52:12;10.20;99.90
6439;DHT22;3252;52.540;13.290;2022-11-04T05:54:14;10.20;99.90
6439;DHT22;3252;52.540;13.290;2022-11-04T05:56:17;10.30;99.90
6439;DHT22;3252;52.540;13.290;2022-11-04T05:58:19;10.30;99.90
6439;DHT22;3252;52.540;13.290;2022-11-04T06:00:22;10.30;99.90
6439;DHT22;3252;52.540;13.290;2022-11-04T06:02:23;10.20;99.90
6439;DHT22;3252;52.540;13.290;2022-11-04T06:04:25;10.20;99.90
6439;DHT22;3252;52.540;13.290;2022-11-04T06:06:29;10.30;99.90
6439;DHT22;3252;52.540;13.290;2022-11-04T06:08:31;10.30;99.90
6439;DHT22;3252;52.540;13.290;2022-11-04T06:10:33;10.20;99.90
6439;DHT22;3252;52.540;13.290;2022-11-04T06:12:36;10.20;99.90
6439;DHT22;3252;52.540;13.290;2022-11-04T06:14:38;10.20;99.90
6439;DHT22;3252;52.540;13.290;2022-11-04T06:16:40;10.20;99.90
6439;DHT22;3252;52.540;13.290;2022-11-04T06:18:42;10.20;99.90
6439;DHT22;3252;52.540;13.290;2022-11-04T06:20:44;10.20;99.90
6439;DHT22;3252;52.540;13.290;2022-11-04T06:22:46;10.20;99.90
6439;DHT22;3252;52.540;13.290;2022-11-04T06:24:48;10.20;99.90
6439;DHT22;3252;52.540;13.290;2022-11-04T06:26:50;10.30;99.90
6439;DHT22;3252;52.540;13.290;2022-11-04T06:28:54;10.30;99.90
6439;DHT22;3252;52.540;13.290;2022-11-04T06:30:56;10.30;99.90
6439;DHT22;3252;52.540;13.290;2022-11-04T06:32:58;10.30;99.90
6439;DHT22;3252;52.540;13.290;2022-11-04T06:35:00;10.30;99.90
6439;DHT22;3252;52.540;13.290;2022-11-04T06:37:02;10.30;99.90
6439;DHT22;3252;52.540;13.290;2022-11-04T06:39:04;10.30;99.90
6439;DHT22;3252;52.540;13.290;2022-11-04T06:41:08;10.30;99.90
6439;DHT22;3252;52.540;13.290;2022-11-04T06:43:11;10.30;99.90
6439;DHT22;3252;52.540;13.290;2022-11-04T06:45:14;10.30;99.90
6439;DHT22;3252;52.540;13.290;2022-11-04T06:47:16;10.30;99.90
6439;DHT22;3252;52.540;13.290;2022-11-04T06:49:20;10.30;99.90
6439;DHT22;3252;52.540;13.290;2022-11-04T06:51:22;10.30;99.90
6439;DHT22;3252;52.540;13.290;2022-11-04T06:53:25;10.30;99.90
6439;DHT22;3252;52.540;13.290;2022-11-04T06:55:27;10.30;99.90
6439;DHT22;3252;52.540;13.290;2022-11-04T06:57:28;10.30;99.90
6439;DHT22;3252;52.540;13.290;2022-11-04T06:59:30;10.30;99.90
6439;DHT22;3252;52.540;13.290;2022-11-04T07:01:35;10.30;99.90
6439;DHT22;3252;52.540;13.290;2022-11-04T07:03:37;10.30;99.90
6439;DHT22;3252;52.540;13.290;2022-11-04T07:05:39;10.30;99.90
6439;DHT22;3252;52.540;13.290;2022-11-04T07:07:41;10.30;99.90
6439;DHT22;3252;52.540;13.290;2022-11-04T07:09:43;10.30;99.90
6439;DHT22;3252;52.540;13.290;2022-11-04T07:11:45;10.30;99.90
6439;DHT22;3252;52.540;13.290;2022-11-04T07:13:47;10.30;99.90
6439;DHT22;3252;52.540;13.290;2022-11-04T07:15:50;10.30;99.90
6439;DHT22;3252;52.540;13.290;2022-11-04T07:17:53;10.30;99.90
6439;DHT22;3252;52.540;13.290;2022-11-04T07:19:55;10.30;99.90
6439;DHT22;3252;52.540;13.290;2022-11-04T07:21:57;10.30;99.90
6439;DHT22;3252;52.540;13.290;2022-11-04T07:23:59;10.30;99.90
6439;DHT22;3252;52.540;13.290;2022-11-04T07:26:03;10.40;99.90
6439;DHT22;3252;52.540;13.290;2022-11-04T07:28:05;10.40;99.90
6439;DHT22;3252;52.540;13.290;2022-11-04T07:30:08;10.40;99.90
6439;DHT22;3252;52.540;13.290;2022-11-04T07:32:12;10.40;99.90
6439;DHT22;3252;52.540;13.290;2022-11-04T07:34:15;10.50;99.90
6439;DHT22;3252;52.540;13.290;2022-11-04T07:36:17;10.50;99.90
6439;DHT22;3252;52.540;13.290;2022-11-04T07:38:20;10.60;99.90
6439;DHT22;3252;52.540;13.290;2022-11-04T07:40:22;10.60;99.90
6439;DHT22;3252;52.540;13.290;2022-11-04T07:42:24;10.60;99.90
6439;DHT22;3252;52.540;13.290;2022-11-04T07:44:29;10.70;99.90
6439;DHT22;3252;52.540;13.290;2022-11-04T07:46:31;10.70;99.90
6439;DHT22;3252;52.540;13.290;2022-11-04T07:48:34;10.70;99.90
6439;DHT22;3252;52.540;13.290;2022-11-04T07:50:39;10.70;99.90
6439;DHT22;3252;52.540;13.290;2022-11-04T07:52:41;10.80;99.90
6439;DHT22;3252;52.540;13.290;2022-11-04T07:54:43;10.80;99.90
6439;DHT22;3252;52.540;13.290;2022-11-04T07:56:44;10.80;99.90
6439;DHT22;3252;52.540;13.290;2022-11-04T07:58:47;10.90;99.90
6439;DHT22;3252;52.540;13.290;2022-11-04T08:00:49;10.90;99.90
6439;DHT22;3252;52.540;13.290;2022-11-04T08:02:51;11.00;99.90
6439;DHT22;3252;52.540;13.290;2022-11-04T08:04:52;11.00;99.90
6439;DHT22;3252;52.540;13.290;2022-11-04T08:06:56;11.00;99.90
6439;DHT22;3252;52.540;13.290;2022-11-04T08:08:58;11.10;99.90
6439;DHT22;3252;52.540;13.290;2022-11-04T08:11:02;11.10;99.90
6439;DHT22;3252;52.540;13.290;2022-11-04T08:13:04;11.10;99.90
6439;DHT22;3252;52.540;13.290;2022-11-04T08:15:07;11.20;99.90
6439;DHT22;3252;52.540;13.290;2022-11-04T08:17:09;11.20;99.90
6439;DHT22;3252;52.540;13.290;2022-11-04T08:19:11;11.30;99.90
6439;DHT22;3252;52.540;13.290;2022-11-04T08:21:13;11.40;99.90
6439;DHT22;3252;52.540;13.290;2022-11-04T08:23:18;11.40;99.90
6439;DHT22;3252;52.540;13.290;2022-11-04T08:25:20;11.40;99.90
6439;DHT22;3252;52.540;13.290;2022-11-04T08:27:23;11.50;99.90
6439;DHT22;3252;52.540;13.290;2022-11-04T08:29:25;11.50;99.90
6439;DHT22;3252;52.540;13.290;2022-11-04T08:31:29;11.50;99.90
6439;DHT22;3252;52.540;13.290;2022-11-04T08:33:34;11.50;99.90
6439;DHT22;3252;52.540;13.290;2022-11-04T08:35:36;11.60;99.90
6439;DHT22;3252;52.540;13.290;2022-11-04T08:37:41;11.50;99.90
6439;DHT22;3252;52.540;13.290;2022-11-04T08:39:44;11.50;99.90
6439;DHT22;3252;52.540;13.290;2022-11-04T08:41:46;11.50;99.90
6439;DHT22;3252;52.540;13.290;2022-11-04T08:43:50;11.50;99.90
6439;DHT22;3252;52.540;13.290;2022-11-04T08:45:52;11.50;99.90
6439;DHT22;3252;52.540;13.290;2022-11-04T08:47:54;11.50;99.90
6439;DHT22;3252;52.540;13.290;2022-11-04T08:49:56;11.50;99.90
6439;DHT22;3252;52.540;13.290;2022-11-04T08:51:58;11.50;99.90
6439;DHT22;3252;52.540;13.290;2022-11-04T08:54:01;11.60;99.90
6439;DHT22;3252;52.540;13.290;2022-11-04T08:56:10;11.60;99.90
6439;DHT22;3252;52.540;13.290;2022-11-04T08:58:12;11.60;99.90
6439;DHT22;3252;52.540;13.290;2022-11-04T09:00:15;11.60;99.90
6439;DHT22;3252;52.540;13.290;2022-11-04T09:02:17;11.70;99.90
6439;DHT22;3252;52.540;13.290;2022-11-04T09:04:19;11.70;99.90
6439;DHT22;3252;52.540;13.290;2022-11-04T09:06:23;11.70;99.90
6439;DHT22;3252;52.540;13.290;2022-11-04T09:08:25;11.70;99.90
6439;DHT22;3252;52.540;13.290;2022-11-04T09:10:27;11.70;99.90
6439;DHT22;3252;52.540;13.290;2022-11-04T09:12:31;11.70;99.90
6439;DHT22;3252;52.540;13.290;2022-11-04T09:14:33;11.70;99.90
6439;DHT22;3252;52.540;13.290;2022-11-04T09:16:35;11.70;99.90
6439;DHT22;3252;52.540;13.290;2022-11-04T09:18:38;11.70;99.90
6439;DHT22;3252;52.540;13.290;2022-11-04T09:20:40;11.70;99.90
6439;DHT22;3252;52.540;13.290;2022-11-04T09:22:42;11.70;99.90
6439;DHT22;3252;52.540;13.290;2022-11-04T09:24:44;11.70;99.90
6439;DHT22;3252;52.540;13.290;2022-11-04T09:26:46;11.70;99.90
6439;DHT22;3252;52.540;13.290;2022-11-04T09:28:53;11.70;99.90
6439;DHT22;3252;52.540;13.290;2022-11-04T09:30:55;11.70;99.90
6439;DHT22;3252;52.540;13.290;2022-11-04T09:32:58;11.70;99.90
6439;DHT22;3252;52.540;13.290;2022-11-04T09:35:00;11.70;99.90
6439;DHT22;3252;52.540;13.290;2022-11-04T09:37:02;11.70;99.90
6439;DHT22;3252;52.540;13.290;2022-11-04T09:39:04;11.70;99.90
6439;DHT22;3252;52.540;13.290;2022-11-04T09:41:46;11.70;99.90
6439;DHT22;3252;52.540;13.290;2022-11-04T09:43:56;11.70;99.90
6439;DHT22;3252;52.540;13.290;2022-11-04T09:46:02;11.70;99.90
6439;DHT22;3252;52.540;13.290;2022-11-04T09:48:07;11.70;99.90
6439;DHT22;3252;52.540;13.290;2022-11-04T09:50:17;11.70;99.90
6439;DHT22;3252;52.540;13.290;2022-11-04T09:52:24;11.70;99.90
6439;DHT22;3252;52.540;13.290;2022-11-04T09:54:33;11.80;99.90
6439;DHT22;3252;52.540;13.290;2022-11-04T09:56:43;11.80;99.90
6439;DHT22;3252;52.540;13.290;2022-11-04T09:58:47;11.80;99.90
6439;DHT22;3252;52.540;13.290;2022-11-04T10:00:57;11.80;99.90
6439;DHT22;3252;52.540;13.290;2022-11-04T10:03:14;11.80;99.90
6439;DHT22;3252;52.540;13.290;2022-11-04T10:05:30;11.80;99.90
6439;DHT22;3252;52.540;13.290;2022-11-04T10:07:49;11.80;99.90
6439;DHT22;3252;52.540;13.290;2022-11-04T10:10:02;11.80;99.90
6439;DHT22;3252;52.540;13.290;2022-11-04T10:12:17;11.70;99.90
6439;DHT22;3252;52.540;13.290;2022-11-04T10:17:03;11.80;99.90
6439;DHT22;3252;52.540;13.290;2022-11-04T10:19:21;11.70;99.90
6439;DHT22;3252;52.540;13.290;2022-11-04T10:21:36;11.80;99.90
6439;DHT22;3252;52.540;13.290;2022-11-04T10:23:43;11.80;99.90
6439;DHT22;3252;52.540;13.290;2022-11-04T10:25:48;11.70;99.90
6439;DHT22;3252;52.540;13.290;2022-11-04T10:27:51;11.70;99.90
6439;DHT22;3252;52.540;13.290;2022-11-04T10:29:56;11.80;99.90
6439;DHT22;3252;52.540;13.290;2022-11-04T10:32:04;11.80;99.90
6439;DHT22;3252;52.540;13.290;2022-11-04T10:34:13;11.80;99.90
6439;DHT22;3252;52.540;13.290;2022-11-04T10:36:16;11.80;99.90
6439;DHT22;3252;52.540;13.290;2022-11-04T10:38:20;11.80;99.90
6439;DHT22;3252;52.540;13.290;2022-11-04T10:40:24;11.80;99.90
6439;DHT22;3252;52.540;13.290;2022-11-04T10:42:28;11.80;99.90
6439;DHT22;3252;52.540;13.290;2022-11-04T10:44:32;11.80;99.90
6439;DHT22;3252;52.540;13.290;2022-11-04T10:46:44;11.80;99.90
6439;DHT22;3252;52.540;13.290;2022-11-04T10:48:53;11.80;99.90
6439;DHT22;3252;52.540;13.290;2022-11-04T10:50:58;11.80;99.90
6439;DHT22;3252;52.540;13.290;2022-11-04T10:53:09;11.80;99.90
6439;DHT22;3252;52.540;13.290;2022-11-04T10:55:24;11.80;99.90
6439;DHT22;3252;52.540;13.290;2022-11-04T10:57:27;11.80;99.90
6439;DHT22;3252;52.540;13.290;2022-11-04T10:59:43;11.80;99.90
6439;DHT22;3252;52.540;13.290;2022-11-04T11:01:49;11.80;99.90
6439;DHT22;3252;52.540;13.290;2022-11-04T11:03:53;11.80;99.90
6439;DHT22;3252;52.540;13.290;2022-11-04T11:06:20;11.80;99.90
6439;DHT22;3252;52.540;13.290;2022-11-04T11:08:29;11.80;99.90
6439;DHT22;3252;52.540;13.290;2022-11-04T11:10:32;11.70;99.90
6439;DHT22;3252;52.540;13.290;2022-11-04T11:12:35;11.80;99.90
6439;DHT22;3252;52.540;13.290;2022-11-04T11:14:46;11.80;99.90
6439;DHT22;3252;52.540;13.290;2022-11-04T11:16:48;11.80;99.90
6439;DHT22;3252;52.540;13.290;2022-11-04T11:19:13;11.80;99.90
6439;DHT22;3252;52.540;13.290;2022-11-04T11:21:16;11.70;99.90
6439;DHT22;3252;52.540;13.290;2022-11-04T11:23:38;11.70;99.90
6439;DHT22;3252;52.540;13.290;2022-11-04T11:25:42;11.80;99.90
6439;DHT22;3252;52.540;13.290;2022-11-04T11:27:49;11.70;99.90
6439;DHT22;3252;52.540;13.290;2022-11-04T11:29:51;11.70;99.90
6439;DHT22;3252;52.540;13.290;2022-11-04T11:31:57;11.80;99.90
6439;DHT22;3252;52.540;13.290;2022-11-04T11:34:03;11.70;99.90
6439;DHT22;3252;52.540;13.290;2022-11-04T11:36:09;11.70;99.90
6439;DHT22;3252;52.540;13.290;2022-11-04T11:38:17;11.70;99.90
6439;DHT22;3252;52.540;13.290;2022-11-04T11:40:26;11.70;99.90
6439;DHT22;3252;52.540;13.290;2022-11-04T11:42:31;11.70;99.90
6439;DHT22;3252;52.540;13.290;2022-11-04T11:44:36;11.70;99.90
6439;DHT22;3252;52.540;13.290;2022-11-04T11:46:49;11.80;99.90
6439;DHT22;3252;52.540;13.290;2022-11-04T11:48:55;11.80;99.90
6439;DHT22;3252;52.540;13.290;2022-11-04T11:51:02;11.80;99.90
6439;DHT22;3252;52.540;13.290;2022-11-04T11:53:13;11.80;99.90
6439;DHT22;3252;52.540;13.290;2022-11-04T11:55:19;11.80;99.90
6439;DHT22;3252;52.540;13.290;2022-11-04T11:57:33;11.70;99.90
6439;DHT22;3252;52.540;13.290;2022-11-04T11:59:43;11.80;99.90
6439;DHT22;3252;52.540;13.290;2022-11-04T12:01:49;11.80;99.90
6439;DHT22;3252;52.540;13.290;2022-11-04T12:03:53;11.80;99.90
6439;DHT22;3252;52.540;13.290;2022-11-04T12:06:18;11.80;99.90
6439;DHT22;3252;52.540;13.290;2022-11-04T12:08:34;11.80;99.90
6439;DHT22;3252;52.540;13.290;2022-11-04T12:10:41;11.70;99.90
6439;DHT22;3252;52.540;13.290;2022-11-04T12:12:55;11.70;99.90
6439;DHT22;3252;52.540;13.290;2022-11-04T12:15:16;11.70;99.90
6439;DHT22;3252;52.540;13.290;2022-11-04T12:17:28;11.70;99.90
6439;DHT22;3252;52.540;13.290;2022-11-04T12:19:46;11.70;99.90
6439;DHT22;3252;52.540;13.290;2022-11-04T12:21:56;11.70;99.90
6439;DHT22;3252;52.540;13.290;2022-11-04T12:24:07;11.70;99.90
6439;DHT22;3252;52.540;13.290;2022-11-04T12:26:21;11.70;99.90
6439;DHT22;3252;52.540;13.290;2022-11-04T12:28:34;11.70;99.90
6439;DHT22;3252;52.540;13.290;2022-11-04T12:30:45;11.70;99.90
6439;DHT22;3252;52.540;13.290;2022-11-04T12:32:59;11.70;99.90
6439;DHT22;3252;52.540;13.290;2022-11-04T12:35:18;11.70;99.90
6439;DHT22;3252;52.540;13.290;2022-11-04T12:37:31;11.70;99.90
6439;DHT22;3252;52.540;13.290;2022-11-04T12:40:02;11.70;99.90
6439;DHT22;3252;52.540;13.290;2022-11-04T12:42:15;11.70;99.90
6439;DHT22;3252;52.540;13.290;2022-11-04T12:44:27;11.70;99.90
6439;DHT22;3252;52.540;13.290;2022-11-04T12:46:36;11.70;99.90
6439;DHT22;3252;52.540;13.290;2022-11-04T12:48:58;11.70;99.90
6439;DHT22;3252;52.540;13.290;2022-11-04T12:51:12;11.70;99.90
6439;DHT22;3252;52.540;13.290;2022-11-04T12:53:44;11.70;99.90
6439;DHT22;3252;52.540;13.290;2022-11-04T12:55:55;11.70;99.90
6439;DHT22;3252;52.540;13.290;2022-11-04T12:58:10;11.70;99.90
6439;DHT22;3252;52.540;13.290;2022-11-04T13:00:16;11.70;99.90
6439;DHT22;3252;52.540;13.290;2022-11-04T13:02:27;11.60;99.90
6439;DHT22;3252;52.540;13.290;2022-11-04T13:04:36;11.60;99.90
6439;DHT22;3252;52.540;13.290;2022-11-04T13:06:42;11.60;99.90
6439;DHT22;3252;52.540;13.290;2022-11-04T13:08:50;11.60;99.90
6439;DHT22;3252;52.540;13.290;2022-11-04T13:10:58;11.60;99.90
6439;DHT22;3252;52.540;13.290;2022-11-04T13:13:03;11.60;99.90
6439;DHT22;3252;52.540;13.290;2022-11-04T13:15:14;11.60;99.90
6439;DHT22;3252;52.540;13.290;2022-11-04T13:17:23;11.60;99.90
6439;DHT22;3252;52.540;13.290;2022-11-04T13:19:30;11.60;99.90
6439;DHT22;3252;52.540;13.290;2022-11-04T13:21:35;11.60;99.90
6439;DHT22;3252;52.540;13.290;2022-11-04T13:23:40;11.60;99.90
6439;DHT22;3252;52.540;13.290;2022-11-04T13:25:47;11.60;99.90
6439;DHT22;3252;52.540;13.290;2022-11-04T13:27:50;11.60;99.90
6439;DHT22;3252;52.540;13.290;2022-11-04T13:30:07;11.60;99.90
6439;DHT22;3252;52.540;13.290;2022-11-04T13:32:22;11.60;99.90
6439;DHT22;3252;52.540;13.290;2022-11-04T13:34:36;11.60;99.90
6439;DHT22;3252;52.540;13.290;2022-11-04T13:36:43;11.50;99.90
6439;DHT22;3252;52.540;13.290;2022-11-04T13:38:51;11.60;99.90
6439;DHT22;3252;52.540;13.290;2022-11-04T13:41:07;11.60;99.90
6439;DHT22;3252;52.540;13.290;2022-11-04T13:43:19;11.50;99.90